createdAt,value
2019-05-26T00:00:36.333Z,99.90
2019-05-26T00:03:04.928Z,99.90
2019-05-26T00:05:33.336Z,99.90
2019-05-26T00:08:01.753Z,99.90
2019-05-26T00:10:30.168Z,99.90
2019-05-26T00:12:58.583Z,99.90
2019-05-26T00:15:27.009Z,99.90
2019-05-26T00:17:55.426Z,99.90
2019-05-26T00:20:23.842Z,99.90
2019-05-26T00:22:52.308Z,99.90
2019-05-26T00:25:20.925Z,99.90
2019-05-26T00:27:49.336Z,99.90
2019-05-26T00:30:18.193Z,99.90
2019-05-26T00:32:46.612Z,99.90
2019-05-26T00:35:15.274Z,99.90
2019-05-26T00:37:49.918Z,99.90
2019-05-26T00:40:14.210Z,99.90
2019-05-26T00:42:42.693Z,99.90
2019-05-26T00:45:11.450Z,99.90
2019-05-26T00:47:40.036Z,99.90
2019-05-26T00:50:09.686Z,99.90
2019-05-26T00:52:38.429Z,99.90
2019-05-26T00:55:07.922Z,99.90
2019-05-26T00:57:36.722Z,99.90
2019-05-26T01:00:09.961Z,99.90
2019-05-26T01:02:38.459Z,99.90
2019-05-26T01:05:08.946Z,99.90
2019-05-26T01:07:38.332Z,99.90
2019-05-26T01:10:10.141Z,99.90
2019-05-26T01:12:38.604Z,99.90
2019-05-26T01:15:08.086Z,99.90
2019-05-26T01:17:36.581Z,99.90
2019-05-26T01:20:06.543Z,99.90
2019-05-26T01:22:34.966Z,99.90
2019-05-26T01:25:04.940Z,99.90
2019-05-26T01:27:33.364Z,99.90
2019-05-26T01:30:01.790Z,99.90
2019-05-26T01:32:30.187Z,99.90
2019-05-26T01:34:58.604Z,99.90
2019-05-26T01:37:27.209Z,99.90
2019-05-26T01:39:55.672Z,99.90
2019-05-26T01:42:24.096Z,99.90
2019-05-26T01:44:52.504Z,99.90
2019-05-26T01:47:20.937Z,99.90
2019-05-26T01:49:49.339Z,99.90
2019-05-26T01:52:17.761Z,99.90
2019-05-26T01:54:46.189Z,99.90
2019-05-26T01:57:14.600Z,99.90
2019-05-26T01:59:43.027Z,99.90
2019-05-26T02:02:11.461Z,99.90
2019-05-26T02:04:39.874Z,99.90
2019-05-26T02:07:08.288Z,99.90
2019-05-26T02:09:36.768Z,99.90
2019-05-26T02:12:05.561Z,99.90
2019-05-26T02:14:33.979Z,99.90
2019-05-26T02:17:02.460Z,99.90
2019-05-26T02:19:30.876Z,99.90
2019-05-26T02:21:59.302Z,99.90
2019-05-26T02:24:27.727Z,99.90
2019-05-26T02:26:56.137Z,99.90
2019-05-26T02:29:24.554Z,99.90
2019-05-26T02:31:53.010Z,99.90
2019-05-26T02:34:21.453Z,99.90
2019-05-26T02:36:49.878Z,99.90
2019-05-26T02:39:18.359Z,99.90
2019-05-26T02:41:46.780Z,99.90
2019-05-26T02:44:15.193Z,99.90
2019-05-26T02:46:43.674Z,99.90
2019-05-26T02:49:12.089Z,99.90
2019-05-26T02:51:40.507Z,99.90
2019-05-26T02:54:08.912Z,99.90
2019-05-26T02:56:37.638Z,99.90
2019-05-26T02:59:06.032Z,99.90
2019-05-26T03:01:34.612Z,99.90
2019-05-26T03:04:03.136Z,99.90
2019-05-26T03:06:33.849Z,99.90
2019-05-26T03:09:21.054Z,99.90
2019-05-26T03:11:35.097Z,99.90
2019-05-26T03:14:04.869Z,99.90
2019-05-26T03:16:36.516Z,99.90
2019-05-26T03:19:05.780Z,99.90
2019-05-26T03:21:35.152Z,99.90
2019-05-26T03:24:04.688Z,99.90
2019-05-26T03:26:33.183Z,99.90
2019-05-26T03:29:01.581Z,99.90
2019-05-26T03:31:30.159Z,99.90
2019-05-26T03:33:58.596Z,99.90
2019-05-26T03:36:27.004Z,99.90
2019-05-26T03:38:55.416Z,99.90
2019-05-26T03:41:23.821Z,99.90
2019-05-26T03:43:52.245Z,99.90
2019-05-26T03:46:21.018Z,99.90
2019-05-26T03:48:50.170Z,99.90
2019-05-26T03:51:19.071Z,99.90
2019-05-26T03:53:47.636Z,99.90
2019-05-26T03:56:16.108Z,99.90
2019-05-26T03:58:44.713Z,99.90
2019-05-26T04:01:13.180Z,99.90
2019-05-26T04:03:41.671Z,99.90
2019-05-26T04:06:10.244Z,99.90
2019-05-26T04:08:38.652Z,99.90
2019-05-26T04:11:07.130Z,99.90
2019-05-26T04:13:35.535Z,99.90
2019-05-26T04:16:04.117Z,99.90
2019-05-26T04:18:32.528Z,99.90
2019-05-26T04:21:00.946Z,99.90
2019-05-26T04:23:29.350Z,99.90
2019-05-26T04:25:57.790Z,99.90
2019-05-26T04:28:26.183Z,99.90
2019-05-26T04:30:54.606Z,99.90
2019-05-26T04:33:23.015Z,99.90
2019-05-26T04:35:51.523Z,99.90
2019-05-26T04:38:20.011Z,99.90
2019-05-26T04:40:48.428Z,99.90
2019-05-26T04:43:16.873Z,99.90
2019-05-26T04:45:45.304Z,99.90
2019-05-26T04:48:22.614Z,99.90
2019-05-26T04:50:51.051Z,99.90
2019-05-26T04:53:19.503Z,99.90
2019-05-26T04:55:47.945Z,99.90
2019-05-26T04:58:16.361Z,99.90
2019-05-26T05:00:44.832Z,99.90
2019-05-26T05:03:13.315Z,99.90
2019-05-26T05:05:41.821Z,99.90
2019-05-26T05:08:10.224Z,99.90
2019-05-26T05:10:42.715Z,99.90
2019-05-26T05:13:08.784Z,99.90
2019-05-26T05:15:37.221Z,99.90
2019-05-26T05:18:05.638Z,99.90
2019-05-26T05:20:34.331Z,99.90
2019-05-26T05:23:22.124Z,99.90
2019-05-26T05:25:50.545Z,99.90
2019-05-26T05:28:18.968Z,99.90
2019-05-26T05:30:47.550Z,99.90
2019-05-26T05:33:15.972Z,99.90
2019-05-26T05:35:44.385Z,99.90
2019-05-26T05:38:12.807Z,99.90
2019-05-26T05:40:57.992Z,99.90
2019-05-26T05:43:11.356Z,99.90
2019-05-26T05:45:39.862Z,99.90
2019-05-26T05:48:08.332Z,99.90
2019-05-26T05:50:39.083Z,99.90
2019-05-26T05:53:06.880Z,99.90
2019-05-26T05:55:35.279Z,99.90
2019-05-26T05:58:03.925Z,99.90
2019-05-26T06:00:32.366Z,99.90
2019-05-26T06:03:00.772Z,99.90
2019-05-26T06:05:29.181Z,99.90
2019-05-26T06:07:57.601Z,99.90
2019-05-26T06:10:26.032Z,99.90
2019-05-26T06:12:54.448Z,99.90
2019-05-26T06:15:23.093Z,99.90
2019-05-26T06:17:51.502Z,99.90
2019-05-26T06:20:21.203Z,99.90
2019-05-26T06:22:49.642Z,99.90
2019-05-26T06:25:18.521Z,99.90
2019-05-26T06:27:47.360Z,99.90
2019-05-26T06:30:16.058Z,99.90
2019-05-26T06:32:44.483Z,99.90
2019-05-26T06:35:13.231Z,99.90
2019-05-26T06:37:41.645Z,99.90
2019-05-26T06:40:10.700Z,99.90
2019-05-26T06:42:39.127Z,99.90
2019-05-26T06:45:08.009Z,99.90
2019-05-26T06:47:36.427Z,99.90
2019-05-26T06:50:08.774Z,99.90
2019-05-26T06:52:37.191Z,99.90
2019-05-26T06:55:06.843Z,99.90
2019-05-26T06:57:35.260Z,99.90
2019-05-26T07:00:07.513Z,99.90
2019-05-26T07:02:35.929Z,99.90
2019-05-26T07:05:06.971Z,99.90
2019-05-26T07:07:35.476Z,99.90
2019-05-26T07:10:05.659Z,99.90
2019-05-26T07:12:34.113Z,99.90
2019-05-26T07:15:02.593Z,99.90
2019-05-26T07:17:31.020Z,99.90
2019-05-26T07:19:59.437Z,99.90
2019-05-26T07:22:27.947Z,99.90
2019-05-26T07:24:56.358Z,99.90
2019-05-26T07:27:24.768Z,99.90
2019-05-26T07:29:53.196Z,99.90
2019-05-26T07:32:21.600Z,99.90
2019-05-26T07:34:50.044Z,99.90
2019-05-26T07:37:18.462Z,99.90
2019-05-26T07:39:46.870Z,99.90
2019-05-26T07:42:15.314Z,99.90
2019-05-26T07:44:43.777Z,99.90
2019-05-26T07:47:12.782Z,99.90
2019-05-26T07:49:41.249Z,99.90
2019-05-26T07:52:09.683Z,99.40
2019-05-26T07:54:38.100Z,99.20
2019-05-26T07:57:06.525Z,98.40
2019-05-26T07:59:35.617Z,98.30
2019-05-26T08:02:04.414Z,97.50
2019-05-26T08:04:32.821Z,96.20
2019-05-26T08:07:01.240Z,96.80
2019-05-26T08:09:29.664Z,96.20
2019-05-26T08:11:58.080Z,95.80
2019-05-26T08:14:26.504Z,95.80
2019-05-26T08:16:54.934Z,93.30
2019-05-26T08:19:23.425Z,93.90
2019-05-26T08:21:54.562Z,94.40
2019-05-26T08:24:22.032Z,94.30
2019-05-26T08:26:50.436Z,92.60
2019-05-26T08:29:18.894Z,94.20
2019-05-26T08:31:47.296Z,93.50
2019-05-26T08:34:15.740Z,92.30
2019-05-26T08:36:44.283Z,93.00
2019-05-26T08:39:12.740Z,93.60
2019-05-26T08:41:41.137Z,90.90
2019-05-26T08:44:09.568Z,91.20
2019-05-26T08:46:37.968Z,91.90
2019-05-26T08:49:06.392Z,91.90
2019-05-26T08:51:37.915Z,91.30
2019-05-26T08:54:06.340Z,90.90
2019-05-26T08:56:34.753Z,92.90
2019-05-26T08:59:03.233Z,94.10
2019-05-26T09:01:31.646Z,90.90
2019-05-26T09:04:00.065Z,88.50
2019-05-26T09:06:28.488Z,87.50
2019-05-26T09:08:56.888Z,85.20
2019-05-26T09:11:25.483Z,85.60
2019-05-26T09:13:53.884Z,84.40
2019-05-26T09:16:22.379Z,83.60
2019-05-26T09:18:50.788Z,80.70
2019-05-26T09:21:19.222Z,79.00
2019-05-26T09:23:47.669Z,80.00
2019-05-26T09:26:16.143Z,77.40
2019-05-26T09:28:44.541Z,76.30
2019-05-26T09:31:12.970Z,77.40
2019-05-26T09:33:41.368Z,77.60
2019-05-26T09:36:09.823Z,74.50
2019-05-26T09:38:38.289Z,74.90
2019-05-26T09:41:06.692Z,75.00
2019-05-26T09:43:35.110Z,74.50
2019-05-26T09:46:03.595Z,73.80
2019-05-26T09:48:32.026Z,72.20
2019-05-26T09:51:00.430Z,69.50
2019-05-26T09:53:28.843Z,69.60
2019-05-26T09:55:57.258Z,73.00
2019-05-26T09:58:25.677Z,72.20
2019-05-26T10:00:54.080Z,69.80
2019-05-26T10:03:22.497Z,69.40
2019-05-26T10:05:50.919Z,70.20
2019-05-26T10:08:19.317Z,69.70
2019-05-26T10:10:47.804Z,63.40
2019-05-26T10:13:29.143Z,62.20
2019-05-26T10:15:46.437Z,65.80
2019-05-26T10:18:14.853Z,61.10
2019-05-26T10:20:43.437Z,60.50
2019-05-26T10:23:11.842Z,61.10
2019-05-26T10:25:40.336Z,59.10
2019-05-26T10:28:08.776Z,60.30
2019-05-26T10:30:37.208Z,58.20
2019-05-26T10:33:05.629Z,57.40
2019-05-26T10:35:34.040Z,58.50
2019-05-26T10:38:02.466Z,60.20
2019-05-26T10:40:30.868Z,58.40
2019-05-26T10:42:59.282Z,58.40
2019-05-26T10:45:27.709Z,58.10
2019-05-26T10:47:56.121Z,57.60
2019-05-26T10:50:24.689Z,57.20
2019-05-26T10:52:53.233Z,57.90
2019-05-26T10:55:21.633Z,57.60
2019-05-26T10:57:50.048Z,57.40
2019-05-26T11:00:19.089Z,55.50
2019-05-26T11:02:47.492Z,56.40
2019-05-26T11:05:16.867Z,56.80
2019-05-26T11:07:45.272Z,55.40
2019-05-26T11:10:14.341Z,54.90
2019-05-26T11:12:42.772Z,54.90
2019-05-26T11:15:11.749Z,53.30
2019-05-26T11:17:40.148Z,54.50
2019-05-26T11:20:09.292Z,54.90
2019-05-26T11:22:37.721Z,54.80
2019-05-26T11:25:09.636Z,54.20
2019-05-26T11:27:38.057Z,55.30
2019-05-26T11:30:09.675Z,53.20
2019-05-26T11:32:38.110Z,54.00
2019-05-26T11:35:07.160Z,51.30
2019-05-26T11:37:35.744Z,52.20
2019-05-26T11:40:08.591Z,51.00
2019-05-26T11:42:37.168Z,51.20
2019-05-26T11:45:07.418Z,50.40
2019-05-26T11:47:35.835Z,49.60
2019-05-26T11:50:09.488Z,49.80
2019-05-26T11:52:37.985Z,50.80
2019-05-26T11:55:09.529Z,49.90
2019-05-26T11:57:37.973Z,50.40
2019-05-26T12:00:09.014Z,50.40
2019-05-26T12:02:38.338Z,49.50
2019-05-26T12:05:07.989Z,50.40
2019-05-26T12:07:36.441Z,50.40
2019-05-26T12:10:06.410Z,51.10
2019-05-26T12:12:34.901Z,52.10
2019-05-26T12:15:04.920Z,53.40
2019-05-26T12:17:33.346Z,50.20
2019-05-26T12:20:05.054Z,49.40
2019-05-26T12:22:31.925Z,49.70
2019-05-26T12:25:00.335Z,50.80
2019-05-26T12:27:30.375Z,52.40
2019-05-26T12:29:59.764Z,54.30
2019-05-26T12:32:28.172Z,54.40
2019-05-26T12:34:56.640Z,55.20
2019-05-26T12:37:25.045Z,54.60
2019-05-26T12:39:53.464Z,53.50
2019-05-26T12:42:21.888Z,51.10
2019-05-26T12:44:50.329Z,51.60
2019-05-26T12:47:18.723Z,50.80
2019-05-26T12:49:47.149Z,49.90
2019-05-26T12:52:15.898Z,50.20
2019-05-26T12:54:44.308Z,49.10
2019-05-26T12:57:12.716Z,48.40
2019-05-26T12:59:41.142Z,47.90
2019-05-26T13:02:09.546Z,48.60
2019-05-26T13:04:38.004Z,48.30
2019-05-26T13:07:06.420Z,49.90
2019-05-26T13:09:37.607Z,48.00
2019-05-26T13:12:06.025Z,46.00
2019-05-26T13:14:34.488Z,46.70
2019-05-26T13:17:02.897Z,45.50
2019-05-26T13:19:31.308Z,45.70
2019-05-26T13:21:59.716Z,47.00
2019-05-26T13:24:28.150Z,45.70
2019-05-26T13:26:56.562Z,46.60
2019-05-26T13:29:26.018Z,46.90
2019-05-26T13:31:54.785Z,47.20
2019-05-26T13:34:23.279Z,47.20
2019-05-26T13:36:51.690Z,47.60
2019-05-26T13:39:20.107Z,48.50
2019-05-26T13:41:48.613Z,48.00
2019-05-26T13:44:17.101Z,47.70
2019-05-26T13:46:45.546Z,47.90
2019-05-26T13:49:14.075Z,49.60
2019-05-26T13:51:42.665Z,48.50
2019-05-26T13:54:11.075Z,47.20
2019-05-26T13:56:39.503Z,46.50
2019-05-26T13:59:07.908Z,47.20
2019-05-26T14:01:36.320Z,46.40
2019-05-26T14:04:05.358Z,46.30
2019-05-26T14:06:33.840Z,46.20
2019-05-26T14:09:02.425Z,45.40
2019-05-26T14:11:30.955Z,47.30
2019-05-26T14:13:59.461Z,47.20
2019-05-26T14:16:29.868Z,46.60
2019-05-26T14:18:59.815Z,46.70
2019-05-26T14:21:28.234Z,46.70
2019-05-26T14:23:56.717Z,45.10
2019-05-26T14:26:25.158Z,43.70
2019-05-26T14:28:53.549Z,43.50
2019-05-26T14:31:21.952Z,44.90
2019-05-26T14:33:50.397Z,45.80
2019-05-26T14:36:18.814Z,46.10
2019-05-26T14:38:47.688Z,46.20
2019-05-26T14:41:16.107Z,47.60
2019-05-26T14:43:44.536Z,48.40
2019-05-26T14:46:13.009Z,47.80
2019-05-26T14:48:41.587Z,49.00
2019-05-26T14:51:10.135Z,47.40
2019-05-26T14:53:38.653Z,47.80
2019-05-26T14:56:07.064Z,47.70
2019-05-26T14:58:35.477Z,46.80
2019-05-26T15:01:03.979Z,46.90
2019-05-26T15:03:32.626Z,47.40
2019-05-26T15:06:05.795Z,47.20
2019-05-26T15:08:31.279Z,47.70
2019-05-26T15:10:59.680Z,46.90
2019-05-26T15:13:28.165Z,47.00
2019-05-26T15:16:09.288Z,46.10
2019-05-26T15:18:26.732Z,46.40
2019-05-26T15:20:56.231Z,46.50
2019-05-26T15:23:24.873Z,47.10
2019-05-26T15:25:53.367Z,47.50
2019-05-26T15:28:21.781Z,47.20
2019-05-26T15:30:50.201Z,48.50
2019-05-26T15:33:18.629Z,46.10
2019-05-26T15:35:47.123Z,46.30
2019-05-26T15:38:15.616Z,46.20
2019-05-26T15:40:44.047Z,45.00
2019-05-26T15:43:12.450Z,43.10
2019-05-26T15:45:40.860Z,41.60
2019-05-26T15:48:09.269Z,42.60
2019-05-26T15:50:37.689Z,42.90
2019-05-26T15:53:06.088Z,43.00
2019-05-26T15:55:34.539Z,42.20
2019-05-26T15:58:02.950Z,40.30
2019-05-26T16:00:31.378Z,39.80
2019-05-26T16:02:59.780Z,40.20
2019-05-26T16:05:28.209Z,41.10
2019-05-26T16:07:56.604Z,43.30
2019-05-26T16:10:25.072Z,43.10
2019-05-26T16:12:53.496Z,43.10
2019-05-26T16:15:22.096Z,41.30
2019-05-26T16:17:50.504Z,40.10
2019-05-26T16:20:19.069Z,43.40
2019-05-26T16:22:47.477Z,43.00
2019-05-26T16:25:16.825Z,42.80
2019-05-26T16:27:45.250Z,41.60
2019-05-26T16:30:13.917Z,42.50
2019-05-26T16:32:42.328Z,41.90
2019-05-26T16:35:10.748Z,41.00
2019-05-26T16:37:39.163Z,41.00
2019-05-26T16:40:08.726Z,39.50
2019-05-26T16:42:37.213Z,39.50
2019-05-26T16:45:09.692Z,40.90
2019-05-26T16:47:38.103Z,41.10
2019-05-26T16:50:07.768Z,39.40
2019-05-26T16:52:36.211Z,39.80
2019-05-26T16:55:06.177Z,41.00
2019-05-26T16:57:34.585Z,42.50
2019-05-26T17:00:03.197Z,41.20
2019-05-26T17:02:31.606Z,38.60
2019-05-26T17:05:00.028Z,42.00
2019-05-26T17:07:28.446Z,41.40
2019-05-26T17:09:56.872Z,40.40
2019-05-26T17:12:25.285Z,40.00
2019-05-26T17:14:53.702Z,38.80
2019-05-26T17:17:22.110Z,37.60
2019-05-26T17:19:52.786Z,39.30
2019-05-26T17:22:20.864Z,39.50
2019-05-26T17:24:49.328Z,38.30
2019-05-26T17:27:17.754Z,40.70
2019-05-26T17:29:46.158Z,39.90
2019-05-26T17:32:14.572Z,38.90
2019-05-26T17:34:42.989Z,39.70
2019-05-26T17:37:11.395Z,39.80
2019-05-26T17:39:39.827Z,40.00
2019-05-26T17:42:08.249Z,40.00
2019-05-26T17:44:36.676Z,39.70
2019-05-26T17:47:05.088Z,40.00
2019-05-26T17:49:33.972Z,40.40
2019-05-26T17:52:02.390Z,40.80
2019-05-26T17:54:30.882Z,42.00
2019-05-26T17:56:59.295Z,42.50
2019-05-26T17:59:27.732Z,43.90
2019-05-26T18:01:56.195Z,45.40
2019-05-26T18:04:24.616Z,47.10
2019-05-26T18:06:53.029Z,49.20
2019-05-26T18:09:21.428Z,50.80
2019-05-26T18:11:49.856Z,50.60
2019-05-26T18:14:18.272Z,51.00
2019-05-26T18:16:46.688Z,51.00
2019-05-26T18:19:15.089Z,52.90
2019-05-26T18:21:43.519Z,54.10
2019-05-26T18:24:11.949Z,53.60
2019-05-26T18:26:40.361Z,54.00
2019-05-26T18:29:08.811Z,54.60
2019-05-26T18:31:37.221Z,55.30
2019-05-26T18:34:05.744Z,55.60
2019-05-26T18:36:34.148Z,56.40
2019-05-26T18:39:02.644Z,57.30
2019-05-26T18:41:31.154Z,58.70
2019-05-26T18:43:59.994Z,59.10
2019-05-26T18:46:28.844Z,60.20
2019-05-26T18:48:57.940Z,60.50
2019-05-26T18:51:26.615Z,60.30
2019-05-26T18:53:55.615Z,60.30
2019-05-26T18:56:24.249Z,60.50
2019-05-26T18:58:52.929Z,60.30
2019-05-26T19:01:21.558Z,61.40
2019-05-26T19:03:50.462Z,61.40
2019-05-26T19:06:19.056Z,61.30
2019-05-26T19:08:47.622Z,61.90
2019-05-26T19:11:16.295Z,62.50
2019-05-26T19:13:45.306Z,62.80
2019-05-26T19:16:14.403Z,64.20
2019-05-26T19:18:43.496Z,64.00
2019-05-26T19:21:12.798Z,64.60
2019-05-26T19:23:41.995Z,68.10
2019-05-26T19:26:11.430Z,68.70
2019-05-26T19:28:40.595Z,71.40
2019-05-26T19:31:09.695Z,71.80
2019-05-26T19:33:38.985Z,76.70
2019-05-26T19:36:09.615Z,76.20
2019-05-26T19:38:39.370Z,79.50
2019-05-26T19:41:09.060Z,80.60
2019-05-26T19:43:38.442Z,81.10
2019-05-26T19:46:08.168Z,78.80
2019-05-26T19:48:37.862Z,83.70
2019-05-26T19:51:06.954Z,84.30
2019-05-26T19:53:36.050Z,83.40
2019-05-26T19:56:05.598Z,89.00
2019-05-26T19:58:35.073Z,90.10
2019-05-26T20:01:05.100Z,90.10
2019-05-26T20:03:34.584Z,92.10
2019-05-26T20:06:04.162Z,93.30
2019-05-26T20:08:34.072Z,93.30
2019-05-26T20:11:03.092Z,95.20
2019-05-26T20:13:32.294Z,93.60
2019-05-26T20:16:01.803Z,94.20
2019-05-26T20:18:30.899Z,94.90
2019-05-26T20:21:00.499Z,96.20
2019-05-26T20:23:29.496Z,98.40
2019-05-26T20:25:58.295Z,99.20
2019-05-26T20:28:27.036Z,99.90
2019-05-26T20:30:55.744Z,99.90
2019-05-26T20:33:24.278Z,98.60
2019-05-26T20:35:52.825Z,99.90
2019-05-26T20:38:21.227Z,99.90
2019-05-26T20:40:49.683Z,99.90
2019-05-26T20:43:18.151Z,99.90
2019-05-26T20:45:46.568Z,99.90
2019-05-26T20:48:14.993Z,99.90
2019-05-26T20:50:43.422Z,99.90
2019-05-26T20:53:11.900Z,99.90
2019-05-26T20:55:40.320Z,99.90
2019-05-26T20:58:08.762Z,99.90
2019-05-26T21:00:37.484Z,99.90
2019-05-26T21:03:06.043Z,99.90
2019-05-26T21:05:34.445Z,99.90
2019-05-26T21:08:02.882Z,99.90
2019-05-26T21:10:31.289Z,99.90
2019-05-26T21:12:59.772Z,99.90
2019-05-26T21:15:28.187Z,99.90
2019-05-26T21:17:56.600Z,99.90
2019-05-26T21:20:25.007Z,99.90
2019-05-26T21:22:53.436Z,99.90
2019-05-26T21:25:21.924Z,99.90
2019-05-26T21:27:50.359Z,99.90
2019-05-26T21:30:19.435Z,99.90
2019-05-26T21:32:47.843Z,99.90
2019-05-26T21:35:16.276Z,99.90
2019-05-26T21:37:44.724Z,99.90
2019-05-26T21:40:14.183Z,99.90
2019-05-26T21:42:42.598Z,99.90
2019-05-26T21:45:11.643Z,99.90
2019-05-26T21:47:40.062Z,99.90
2019-05-26T21:50:10.029Z,99.90
2019-05-26T21:52:38.711Z,99.90
2019-05-26T21:55:08.346Z,99.90
2019-05-26T21:57:36.781Z,99.90
2019-05-26T22:00:10.832Z,99.90
2019-05-26T22:02:38.460Z,99.90
2019-05-26T22:05:08.410Z,99.90
2019-05-26T22:07:36.820Z,99.90
2019-05-26T22:10:06.349Z,99.90
2019-05-26T22:12:34.748Z,99.90
2019-05-26T22:15:06.296Z,99.90
2019-05-26T22:17:34.720Z,99.90
2019-05-26T22:20:04.294Z,99.90
2019-05-26T22:22:32.711Z,99.90
2019-05-26T22:25:01.139Z,99.90
2019-05-26T22:27:29.540Z,99.90
2019-05-26T22:29:57.961Z,99.90
2019-05-26T22:32:26.386Z,99.90
2019-05-26T22:34:54.791Z,99.90
2019-05-26T22:37:23.236Z,99.90
2019-05-26T22:39:51.660Z,99.90
2019-05-26T22:42:20.101Z,99.90
2019-05-26T22:44:48.513Z,99.90
2019-05-26T22:47:16.924Z,99.90
2019-05-26T22:49:45.332Z,99.90
2019-05-26T22:52:17.410Z,99.90
2019-05-26T22:54:43.892Z,99.90
2019-05-26T22:57:12.327Z,99.90
2019-05-26T22:59:40.731Z,99.90
2019-05-26T23:02:09.160Z,99.90
2019-05-26T23:04:37.569Z,99.90
2019-05-26T23:07:06.165Z,99.90
2019-05-26T23:09:34.568Z,99.90
2019-05-26T23:12:02.980Z,99.90
2019-05-26T23:14:31.396Z,99.90
2019-05-26T23:16:59.804Z,99.90
2019-05-26T23:19:28.227Z,99.90
2019-05-26T23:21:56.649Z,99.90
2019-05-26T23:24:25.137Z,99.90
2019-05-26T23:26:53.560Z,99.90
2019-05-26T23:29:21.966Z,99.90
2019-05-26T23:31:50.388Z,99.90
2019-05-26T23:34:18.805Z,99.90
2019-05-26T23:36:47.220Z,99.90
2019-05-26T23:39:15.941Z,99.90
2019-05-26T23:41:44.660Z,99.90
2019-05-26T23:44:13.068Z,99.90
2019-05-26T23:46:41.485Z,99.90
2019-05-26T23:49:09.896Z,99.90
2019-05-26T23:51:38.327Z,99.90
2019-05-26T23:54:06.736Z,99.90
2019-05-26T23:56:35.154Z,99.90
2019-05-26T23:59:03.596Z,99.90
